sensor_id;sensor_type;location;lat;lon;timestamp;P1;durP1;ratioP1;P2;durP2;ratioP2
56122;SDS011;42426;46.104;19.656;2023-02-15T00:00:16;141.68;;;83.57;;
56122;SDS011;42426;46.104;19.656;2023-02-15T00:02:42;136.52;;;80.50;;
56122;SDS011;42426;46.104;19.656;2023-02-15T00:05:08;130.90;;;76.97;;
56122;SDS011;42426;46.104;19.656;2023-02-15T00:07:34;135.95;;;80.72;;
56122;SDS011;42426;46.104;19.656;2023-02-15T00:10:01;143.18;;;81.10;;
56122;SDS011;42426;46.104;19.656;2023-02-15T00:12:26;145.68;;;82.78;;
56122;SDS011;42426;46.104;19.656;2023-02-15T00:14:52;147.70;;;82.35;;
56122;SDS011;42426;46.104;19.656;2023-02-15T00:17:17;140.65;;;84.63;;
56122;SDS011;42426;46.104;19.656;2023-02-15T00:19:43;133.45;;;78.53;;
56122;SDS011;42426;46.104;19.656;2023-02-15T00:22:09;138.75;;;80.40;;
56122;SDS011;42426;46.104;19.656;2023-02-15T00:24:35;132.88;;;73.80;;
56122;SDS011;42426;46.104;19.656;2023-02-15T00:27:00;128.93;;;75.35;;
56122;SDS011;42426;46.104;19.656;2023-02-15T00:29:26;124.88;;;70.88;;
56122;SDS011;42426;46.104;19.656;2023-02-15T00:31:53;121.35;;;71.38;;
56122;SDS011;42426;46.104;19.656;2023-02-15T00:34:20;126.28;;;74.25;;
56122;SDS011;42426;46.104;19.656;2023-02-15T00:36:48;127.70;;;76.05;;
56122;SDS011;42426;46.104;19.656;2023-02-15T00:39:15;128.98;;;76.85;;
56122;SDS011;42426;46.104;19.656;2023-02-15T00:41:41;137.98;;;76.45;;
56122;SDS011;42426;46.104;19.656;2023-02-15T00:44:08;132.50;;;77.15;;
56122;SDS011;42426;46.104;19.656;2023-02-15T00:46:34;137.10;;;79.43;;
56122;SDS011;42426;46.104;19.656;2023-02-15T00:49:00;135.63;;;81.78;;
56122;SDS011;42426;46.104;19.656;2023-02-15T00:51:26;138.15;;;77.28;;
56122;SDS011;42426;46.104;19.656;2023-02-15T00:53:52;140.32;;;81.85;;
56122;SDS011;42426;46.104;19.656;2023-02-15T00:56:18;126.38;;;72.93;;
56122;SDS011;42426;46.104;19.656;2023-02-15T00:58:44;121.80;;;71.38;;
56122;SDS011;42426;46.104;19.656;2023-02-15T01:01:11;121.68;;;69.95;;
56122;SDS011;42426;46.104;19.656;2023-02-15T01:03:39;127.93;;;74.55;;
56122;SDS011;42426;46.104;19.656;2023-02-15T01:06:09;131.50;;;74.80;;
56122;SDS011;42426;46.104;19.656;2023-02-15T01:08:36;131.57;;;74.30;;
56122;SDS011;42426;46.104;19.656;2023-02-15T01:11:05;130.82;;;77.03;;
56122;SDS011;42426;46.104;19.656;2023-02-15T01:13:33;127.82;;;73.47;;
56122;SDS011;42426;46.104;19.656;2023-02-15T01:15:59;137.68;;;76.45;;
56122;SDS011;42426;46.104;19.656;2023-02-15T01:18:24;132.95;;;75.63;;
56122;SDS011;42426;46.104;19.656;2023-02-15T01:20:51;132.45;;;77.78;;
56122;SDS011;42426;46.104;19.656;2023-02-15T01:23:17;128.63;;;74.93;;
56122;SDS011;42426;46.104;19.656;2023-02-15T01:25:43;142.75;;;78.78;;
56122;SDS011;42426;46.104;19.656;2023-02-15T01:28:09;140.75;;;81.28;;
56122;SDS011;42426;46.104;19.656;2023-02-15T01:30:35;135.48;;;79.35;;
56122;SDS011;42426;46.104;19.656;2023-02-15T01:33:01;140.13;;;80.95;;
56122;SDS011;42426;46.104;19.656;2023-02-15T01:35:27;144.93;;;82.28;;
56122;SDS011;42426;46.104;19.656;2023-02-15T01:37:54;140.20;;;77.18;;
56122;SDS011;42426;46.104;19.656;2023-02-15T01:40:20;136.40;;;77.15;;
56122;SDS011;42426;46.104;19.656;2023-02-15T01:42:50;133.13;;;76.43;;
56122;SDS011;42426;46.104;19.656;2023-02-15T01:45:24;132.82;;;78.32;;
56122;SDS011;42426;46.104;19.656;2023-02-15T01:53:09;124.82;;;71.95;;
56122;SDS011;42426;46.104;19.656;2023-02-15T01:55:52;139.23;;;76.43;;
56122;SDS011;42426;46.104;19.656;2023-02-15T01:58:26;132.50;;;76.18;;
56122;SDS011;42426;46.104;19.656;2023-02-15T02:00:54;161.63;;;90.57;;
56122;SDS011;42426;46.104;19.656;2023-02-15T02:03:24;157.80;;;89.60;;
56122;SDS011;42426;46.104;19.656;2023-02-15T02:06:01;152.05;;;91.90;;
56122;SDS011;42426;46.104;19.656;2023-02-15T02:08:27;155.48;;;91.65;;
56122;SDS011;42426;46.104;19.656;2023-02-15T02:10:53;138.95;;;83.32;;
56122;SDS011;42426;46.104;19.656;2023-02-15T02:13:18;138.98;;;83.25;;
56122;SDS011;42426;46.104;19.656;2023-02-15T02:15:48;124.28;;;72.80;;
56122;SDS011;42426;46.104;19.656;2023-02-15T02:18:32;118.80;;;70.07;;
56122;SDS011;42426;46.104;19.656;2023-02-15T02:26:34;114.60;;;60.35;;
56122;SDS011;42426;46.104;19.656;2023-02-15T02:32:28;116.03;;;65.13;;
56122;SDS011;42426;46.104;19.656;2023-02-15T02:43:31;128.90;;;73.37;;
56122;SDS011;42426;46.104;19.656;2023-02-15T02:46:10;126.97;;;74.53;;
56122;SDS011;42426;46.104;19.656;2023-02-15T02:48:43;138.45;;;81.25;;
56122;SDS011;42426;46.104;19.656;2023-02-15T02:51:10;151.23;;;91.38;;
56122;SDS011;42426;46.104;19.656;2023-02-15T02:53:36;148.77;;;86.57;;
56122;SDS011;42426;46.104;19.656;2023-02-15T02:58:57;145.57;;;82.60;;
56122;SDS011;42426;46.104;19.656;2023-02-15T03:01:39;129.20;;;75.45;;
56122;SDS011;42426;46.104;19.656;2023-02-15T03:04:08;123.00;;;68.95;;
56122;SDS011;42426;46.104;19.656;2023-02-15T03:12:06;110.97;;;62.33;;
56122;SDS011;42426;46.104;19.656;2023-02-15T03:14:36;117.30;;;64.50;;
56122;SDS011;42426;46.104;19.656;2023-02-15T03:17:02;109.75;;;62.28;;
56122;SDS011;42426;46.104;19.656;2023-02-15T03:19:30;120.25;;;65.90;;
56122;SDS011;42426;46.104;19.656;2023-02-15T03:22:06;115.45;;;64.05;;
56122;SDS011;42426;46.104;19.656;2023-02-15T03:24:53;100.45;;;55.20;;
56122;SDS011;42426;46.104;19.656;2023-02-15T03:27:27;87.88;;;48.38;;
56122;SDS011;42426;46.104;19.656;2023-02-15T03:30:04;82.18;;;44.25;;
56122;SDS011;42426;46.104;19.656;2023-02-15T03:32:33;76.47;;;41.58;;
56122;SDS011;42426;46.104;19.656;2023-02-15T03:35:02;79.13;;;39.67;;
56122;SDS011;42426;46.104;19.656;2023-02-15T03:40:08;73.20;;;39.30;;
56122;SDS011;42426;46.104;19.656;2023-02-15T03:43:02;83.93;;;43.38;;
56122;SDS011;42426;46.104;19.656;2023-02-15T03:45:40;95.07;;;47.83;;
56122;SDS011;42426;46.104;19.656;2023-02-15T03:48:41;93.82;;;50.85;;
56122;SDS011;42426;46.104;19.656;2023-02-15T03:51:12;90.18;;;46.47;;
56122;SDS011;42426;46.104;19.656;2023-02-15T03:53:58;81.80;;;43.17;;
56122;SDS011;42426;46.104;19.656;2023-02-15T03:56:27;75.47;;;40.30;;
56122;SDS011;42426;46.104;19.656;2023-02-15T03:58:52;68.40;;;36.05;;
56122;SDS011;42426;46.104;19.656;2023-02-15T04:01:38;63.92;;;32.60;;
56122;SDS011;42426;46.104;19.656;2023-02-15T04:04:26;60.30;;;31.52;;
56122;SDS011;42426;46.104;19.656;2023-02-15T04:06:57;59.47;;;29.40;;
56122;SDS011;42426;46.104;19.656;2023-02-15T04:09:23;61.25;;;32.05;;
56122;SDS011;42426;46.104;19.656;2023-02-15T04:12:07;62.08;;;31.80;;
56122;SDS011;42426;46.104;19.656;2023-02-15T04:14:33;55.63;;;29.17;;
56122;SDS011;42426;46.104;19.656;2023-02-15T04:17:17;55.60;;;31.05;;
56122;SDS011;42426;46.104;19.656;2023-02-15T04:19:43;61.28;;;31.60;;
56122;SDS011;42426;46.104;19.656;2023-02-15T04:22:27;59.17;;;31.50;;
56122;SDS011;42426;46.104;19.656;2023-02-15T04:25:11;61.83;;;31.27;;
56122;SDS011;42426;46.104;19.656;2023-02-15T04:27:38;59.83;;;31.52;;
56122;SDS011;42426;46.104;19.656;2023-02-15T04:30:07;68.85;;;35.40;;
56122;SDS011;42426;46.104;19.656;2023-02-15T04:32:33;64.47;;;34.22;;
56122;SDS011;42426;46.104;19.656;2023-02-15T04:35:00;65.55;;;36.55;;
56122;SDS011;42426;46.104;19.656;2023-02-15T04:37:25;70.28;;;36.47;;
56122;SDS011;42426;46.104;19.656;2023-02-15T04:39:51;67.25;;;34.60;;
56122;SDS011;42426;46.104;19.656;2023-02-15T04:42:17;69.80;;;36.67;;
56122;SDS011;42426;46.104;19.656;2023-02-15T04:44:42;71.28;;;33.63;;
56122;SDS011;42426;46.104;19.656;2023-02-15T04:47:10;66.38;;;32.38;;
56122;SDS011;42426;46.104;19.656;2023-02-15T04:49:36;58.15;;;33.63;;
56122;SDS011;42426;46.104;19.656;2023-02-15T04:52:03;61.58;;;30.98;;
56122;SDS011;42426;46.104;19.656;2023-02-15T04:54:28;59.25;;;31.45;;
56122;SDS011;42426;46.104;19.656;2023-02-15T04:56:54;60.90;;;32.00;;
56122;SDS011;42426;46.104;19.656;2023-02-15T04:59:20;57.22;;;30.45;;
56122;SDS011;42426;46.104;19.656;2023-02-15T05:01:45;54.63;;;28.60;;
56122;SDS011;42426;46.104;19.656;2023-02-15T05:04:11;59.05;;;27.92;;
56122;SDS011;42426;46.104;19.656;2023-02-15T05:06:37;53.05;;;27.48;;
56122;SDS011;42426;46.104;19.656;2023-02-15T05:09:02;57.72;;;29.00;;
56122;SDS011;42426;46.104;19.656;2023-02-15T05:11:28;57.97;;;29.35;;
56122;SDS011;42426;46.104;19.656;2023-02-15T05:13:54;54.80;;;28.63;;
56122;SDS011;42426;46.104;19.656;2023-02-15T05:16:21;59.47;;;30.98;;
56122;SDS011;42426;46.104;19.656;2023-02-15T05:18:47;61.95;;;30.40;;
56122;SDS011;42426;46.104;19.656;2023-02-15T05:21:13;61.28;;;29.95;;
56122;SDS011;42426;46.104;19.656;2023-02-15T05:23:41;56.85;;;31.27;;
56122;SDS011;42426;46.104;19.656;2023-02-15T05:26:09;61.85;;;29.83;;
56122;SDS011;42426;46.104;19.656;2023-02-15T05:28:55;61.00;;;31.95;;
56122;SDS011;42426;46.104;19.656;2023-02-15T05:31:21;59.40;;;33.45;;
56122;SDS011;42426;46.104;19.656;2023-02-15T05:33:47;70.97;;;36.08;;
56122;SDS011;42426;46.104;19.656;2023-02-15T05:36:13;62.55;;;34.63;;
56122;SDS011;42426;46.104;19.656;2023-02-15T05:38:38;76.90;;;39.35;;
56122;SDS011;42426;46.104;19.656;2023-02-15T05:41:05;66.18;;;35.92;;
56122;SDS011;42426;46.104;19.656;2023-02-15T05:43:32;65.13;;;37.67;;
56122;SDS011;42426;46.104;19.656;2023-02-15T05:45:58;72.13;;;37.47;;
56122;SDS011;42426;46.104;19.656;2023-02-15T05:48:24;67.93;;;37.60;;
56122;SDS011;42426;46.104;19.656;2023-02-15T05:50:58;74.38;;;38.10;;
56122;SDS011;42426;46.104;19.656;2023-02-15T05:53:24;66.82;;;38.58;;
56122;SDS011;42426;46.104;19.656;2023-02-15T05:55:51;81.18;;;42.17;;
56122;SDS011;42426;46.104;19.656;2023-02-15T05:58:17;76.97;;;41.22;;
56122;SDS011;42426;46.104;19.656;2023-02-15T06:00:43;80.03;;;40.20;;
56122;SDS011;42426;46.104;19.656;2023-02-15T06:03:08;75.82;;;39.55;;
56122;SDS011;42426;46.104;19.656;2023-02-15T06:05:34;86.18;;;46.63;;
56122;SDS011;42426;46.104;19.656;2023-02-15T06:08:00;87.95;;;47.45;;
56122;SDS011;42426;46.104;19.656;2023-02-15T06:10:25;94.82;;;50.03;;
56122;SDS011;42426;46.104;19.656;2023-02-15T06:12:51;91.68;;;49.53;;
56122;SDS011;42426;46.104;19.656;2023-02-15T06:15:17;97.22;;;55.30;;
56122;SDS011;42426;46.104;19.656;2023-02-15T06:17:42;107.35;;;57.33;;
56122;SDS011;42426;46.104;19.656;2023-02-15T06:20:08;100.93;;;55.53;;
56122;SDS011;42426;46.104;19.656;2023-02-15T06:22:34;120.75;;;65.18;;
56122;SDS011;42426;46.104;19.656;2023-02-15T06:25:00;133.32;;;74.65;;
56122;SDS011;42426;46.104;19.656;2023-02-15T06:27:26;121.78;;;73.68;;
56122;SDS011;42426;46.104;19.656;2023-02-15T06:29:52;121.20;;;73.40;;
56122;SDS011;42426;46.104;19.656;2023-02-15T06:32:17;117.90;;;69.07;;
56122;SDS011;42426;46.104;19.656;2023-02-15T06:34:43;114.03;;;63.13;;
56122;SDS011;42426;46.104;19.656;2023-02-15T06:37:10;109.85;;;61.70;;
56122;SDS011;42426;46.104;19.656;2023-02-15T06:39:35;102.60;;;57.72;;
56122;SDS011;42426;46.104;19.656;2023-02-15T06:42:03;111.10;;;63.25;;
56122;SDS011;42426;46.104;19.656;2023-02-15T06:44:30;120.00;;;67.80;;
56122;SDS011;42426;46.104;19.656;2023-02-15T06:46:55;114.65;;;66.95;;
56122;SDS011;42426;46.104;19.656;2023-02-15T06:49:21;118.78;;;68.18;;
56122;SDS011;42426;46.104;19.656;2023-02-15T06:51:47;122.95;;;68.63;;
56122;SDS011;42426;46.104;19.656;2023-02-15T06:54:13;120.68;;;66.10;;
56122;SDS011;42426;46.104;19.656;2023-02-15T06:56:38;115.15;;;62.70;;
56122;SDS011;42426;46.104;19.656;2023-02-15T06:59:04;98.35;;;54.25;;
56122;SDS011;42426;46.104;19.656;2023-02-15T07:01:30;107.50;;;57.78;;
56122;SDS011;42426;46.104;19.656;2023-02-15T07:03:55;113.80;;;61.30;;
56122;SDS011;42426;46.104;19.656;2023-02-15T07:06:21;101.22;;;57.97;;
56122;SDS011;42426;46.104;19.656;2023-02-15T07:08:47;107.20;;;60.53;;
56122;SDS011;42426;46.104;19.656;2023-02-15T07:11:13;102.78;;;56.55;;
56122;SDS011;42426;46.104;19.656;2023-02-15T07:13:57;104.88;;;58.10;;
56122;SDS011;42426;46.104;19.656;2023-02-15T07:16:22;106.97;;;56.28;;
56122;SDS011;42426;46.104;19.656;2023-02-15T07:18:48;113.88;;;60.45;;
56122;SDS011;42426;46.104;19.656;2023-02-15T07:21:14;112.68;;;65.20;;
56122;SDS011;42426;46.104;19.656;2023-02-15T07:23:39;116.65;;;62.22;;
56122;SDS011;42426;46.104;19.656;2023-02-15T07:26:05;100.70;;;54.22;;
56122;SDS011;42426;46.104;19.656;2023-02-15T07:28:32;108.32;;;56.97;;
56122;SDS011;42426;46.104;19.656;2023-02-15T07:31:00;93.28;;;51.70;;
56122;SDS011;42426;46.104;19.656;2023-02-15T07:33:30;94.93;;;51.38;;
56122;SDS011;42426;46.104;19.656;2023-02-15T07:35:57;104.50;;;56.38;;
56122;SDS011;42426;46.104;19.656;2023-02-15T07:38:32;92.07;;;52.58;;
56122;SDS011;42426;46.104;19.656;2023-02-15T07:41:02;102.68;;;55.88;;
56122;SDS011;42426;46.104;19.656;2023-02-15T07:43:29;99.35;;;57.90;;
56122;SDS011;42426;46.104;19.656;2023-02-15T07:46:01;106.65;;;58.63;;
56122;SDS011;42426;46.104;19.656;2023-02-15T07:48:28;109.57;;;64.30;;
56122;SDS011;42426;46.104;19.656;2023-02-15T07:50:54;115.07;;;65.57;;
56122;SDS011;42426;46.104;19.656;2023-02-15T07:53:26;112.30;;;62.53;;
56122;SDS011;42426;46.104;19.656;2023-02-15T07:56:03;103.90;;;54.08;;
56122;SDS011;42426;46.104;19.656;2023-02-15T07:58:34;101.35;;;55.67;;
56122;SDS011;42426;46.104;19.656;2023-02-15T08:01:28;109.97;;;62.55;;
56122;SDS011;42426;46.104;19.656;2023-02-15T08:03:57;110.57;;;60.33;;
56122;SDS011;42426;46.104;19.656;2023-02-15T08:06:24;108.60;;;60.15;;
56122;SDS011;42426;46.104;19.656;2023-02-15T08:08:51;99.80;;;55.08;;
56122;SDS011;42426;46.104;19.656;2023-02-15T08:11:21;100.60;;;53.80;;
56122;SDS011;42426;46.104;19.656;2023-02-15T08:13:54;89.60;;;48.40;;
56122;SDS011;42426;46.104;19.656;2023-02-15T08:16:46;84.57;;;44.13;;
56122;SDS011;42426;46.104;19.656;2023-02-15T08:19:28;89.05;;;44.10;;
56122;SDS011;42426;46.104;19.656;2023-02-15T08:21:56;92.03;;;45.20;;
56122;SDS011;42426;46.104;19.656;2023-02-15T08:24:25;83.45;;;44.63;;
56122;SDS011;42426;46.104;19.656;2023-02-15T08:26:53;66.80;;;35.38;;
56122;SDS011;42426;46.104;19.656;2023-02-15T08:29:20;69.53;;;39.50;;
56122;SDS011;42426;46.104;19.656;2023-02-15T08:31:54;68.82;;;36.80;;
56122;SDS011;42426;46.104;19.656;2023-02-15T08:34:23;82.30;;;40.28;;
56122;SDS011;42426;46.104;19.656;2023-02-15T08:36:49;58.08;;;31.17;;
56122;SDS011;42426;46.104;19.656;2023-02-15T08:39:15;56.60;;;29.70;;
56122;SDS011;42426;46.104;19.656;2023-02-15T08:41:43;61.03;;;33.70;;
56122;SDS011;42426;46.104;19.656;2023-02-15T08:44:10;67.78;;;34.45;;
56122;SDS011;42426;46.104;19.656;2023-02-15T08:46:37;74.47;;;45.13;;
56122;SDS011;42426;46.104;19.656;2023-02-15T08:49:04;88.72;;;48.00;;
56122;SDS011;42426;46.104;19.656;2023-02-15T08:51:33;69.88;;;36.17;;
56122;SDS011;42426;46.104;19.656;2023-02-15T08:54:03;71.40;;;41.95;;
56122;SDS011;42426;46.104;19.656;2023-02-15T08:56:32;58.00;;;32.92;;
56122;SDS011;42426;46.104;19.656;2023-02-15T08:59:00;67.25;;;32.92;;
56122;SDS011;42426;46.104;19.656;2023-02-15T09:01:28;70.30;;;37.17;;
56122;SDS011;42426;46.104;19.656;2023-02-15T09:03:55;86.82;;;45.78;;
56122;SDS011;42426;46.104;19.656;2023-02-15T09:06:23;63.38;;;33.03;;
56122;SDS011;42426;46.104;19.656;2023-02-15T09:08:49;78.32;;;36.60;;
56122;SDS011;42426;46.104;19.656;2023-02-15T09:11:16;80.28;;;41.22;;
56122;SDS011;42426;46.104;19.656;2023-02-15T09:13:55;92.43;;;46.22;;
56122;SDS011;42426;46.104;19.656;2023-02-15T09:16:23;82.18;;;44.25;;
56122;SDS011;42426;46.104;19.656;2023-02-15T09:18:51;82.57;;;41.22;;
56122;SDS011;42426;46.104;19.656;2023-02-15T09:21:19;66.32;;;37.40;;
56122;SDS011;42426;46.104;19.656;2023-02-15T09:23:48;68.20;;;36.83;;
56122;SDS011;42426;46.104;19.656;2023-02-15T09:26:16;69.15;;;36.88;;
56122;SDS011;42426;46.104;19.656;2023-02-15T09:28:43;71.22;;;42.13;;
56122;SDS011;42426;46.104;19.656;2023-02-15T09:31:16;67.28;;;34.40;;
56122;SDS011;42426;46.104;19.656;2023-02-15T09:33:45;70.93;;;36.45;;
56122;SDS011;42426;46.104;19.656;2023-02-15T09:36:19;110.38;;;64.60;;
56122;SDS011;42426;46.104;19.656;2023-02-15T09:38:46;61.20;;;34.22;;
56122;SDS011;42426;46.104;19.656;2023-02-15T09:52:58;100.20;;;66.25;;
56122;SDS011;42426;46.104;19.656;2023-02-15T10:12:31;43.72;;;24.67;;
56122;SDS011;42426;46.104;19.656;2023-02-15T10:15:08;46.97;;;26.55;;
56122;SDS011;42426;46.104;19.656;2023-02-15T10:18:00;41.33;;;22.25;;
56122;SDS011;42426;46.104;19.656;2023-02-15T10:26:16;48.70;;;23.52;;
56122;SDS011;42426;46.104;19.656;2023-02-15T10:29:00;45.47;;;23.33;;
56122;SDS011;42426;46.104;19.656;2023-02-15T10:53:17;36.78;;;20.67;;
56122;SDS011;42426;46.104;19.656;2023-02-15T10:58:17;42.10;;;23.15;;
56122;SDS011;42426;46.104;19.656;2023-02-15T11:01:20;45.78;;;23.80;;
56122;SDS011;42426;46.104;19.656;2023-02-15T11:04:08;47.53;;;23.73;;
56122;SDS011;42426;46.104;19.656;2023-02-15T11:06:49;41.28;;;24.60;;
56122;SDS011;42426;46.104;19.656;2023-02-15T11:09:19;39.03;;;23.05;;
56122;SDS011;42426;46.104;19.656;2023-02-15T11:11:49;41.95;;;24.27;;
56122;SDS011;42426;46.104;19.656;2023-02-15T11:14:20;45.08;;;25.42;;
56122;SDS011;42426;46.104;19.656;2023-02-15T11:16:59;43.30;;;25.50;;
56122;SDS011;42426;46.104;19.656;2023-02-15T11:19:41;41.50;;;25.13;;
56122;SDS011;42426;46.104;19.656;2023-02-15T11:22:32;46.67;;;26.50;;
56122;SDS011;42426;46.104;19.656;2023-02-15T11:24:58;43.65;;;23.92;;
56122;SDS011;42426;46.104;19.656;2023-02-15T11:27:28;46.88;;;26.35;;
56122;SDS011;42426;46.104;19.656;2023-02-15T11:29:59;52.85;;;27.77;;
56122;SDS011;42426;46.104;19.656;2023-02-15T11:32:33;50.05;;;32.47;;
56122;SDS011;42426;46.104;19.656;2023-02-15T11:37:39;42.80;;;25.63;;
56122;SDS011;42426;46.104;19.656;2023-02-15T11:42:55;41.30;;;25.20;;
56122;SDS011;42426;46.104;19.656;2023-02-15T11:45:29;36.05;;;22.80;;
56122;SDS011;42426;46.104;19.656;2023-02-15T11:47:57;34.63;;;21.80;;
56122;SDS011;42426;46.104;19.656;2023-02-15T11:50:26;42.97;;;25.40;;
56122;SDS011;42426;46.104;19.656;2023-02-15T11:53:01;44.42;;;25.88;;
56122;SDS011;42426;46.104;19.656;2023-02-15T11:55:29;39.92;;;23.13;;
56122;SDS011;42426;46.104;19.656;2023-02-15T11:58:04;40.45;;;23.67;;
56122;SDS011;42426;46.104;19.656;2023-02-15T12:00:35;45.42;;;27.92;;
56122;SDS011;42426;46.104;19.656;2023-02-15T12:06:03;40.97;;;22.98;;
56122;SDS011;42426;46.104;19.656;2023-02-15T12:08:40;38.25;;;22.77;;
56122;SDS011;42426;46.104;19.656;2023-02-15T12:11:21;54.13;;;30.77;;
56122;SDS011;42426;46.104;19.656;2023-02-15T12:13:54;42.60;;;23.38;;
56122;SDS011;42426;46.104;19.656;2023-02-15T12:16:20;42.25;;;23.10;;
56122;SDS011;42426;46.104;19.656;2023-02-15T12:18:46;33.72;;;19.63;;
56122;SDS011;42426;46.104;19.656;2023-02-15T12:21:23;35.15;;;21.88;;
56122;SDS011;42426;46.104;19.656;2023-02-15T12:24:00;60.83;;;35.83;;
56122;SDS011;42426;46.104;19.656;2023-02-15T12:26:43;39.03;;;22.90;;
56122;SDS011;42426;46.104;19.656;2023-02-15T12:29:15;38.35;;;21.27;;
56122;SDS011;42426;46.104;19.656;2023-02-15T12:31:46;43.57;;;23.87;;
56122;SDS011;42426;46.104;19.656;2023-02-15T12:34:22;40.23;;;22.07;;
56122;SDS011;42426;46.104;19.656;2023-02-15T12:36:52;37.38;;;22.27;;
56122;SDS011;42426;46.104;19.656;2023-02-15T12:39:31;50.88;;;29.83;;
56122;SDS011;42426;46.104;19.656;2023-02-15T12:44:30;44.08;;;23.77;;
56122;SDS011;42426;46.104;19.656;2023-02-15T12:49:30;38.10;;;21.08;;
56122;SDS011;42426;46.104;19.656;2023-02-15T12:54:36;32.38;;;17.45;;
56122;SDS011;42426;46.104;19.656;2023-02-15T12:57:14;34.83;;;20.17;;
56122;SDS011;42426;46.104;19.656;2023-02-15T12:59:49;44.85;;;24.30;;
56122;SDS011;42426;46.104;19.656;2023-02-15T13:02:23;34.20;;;21.42;;
56122;SDS011;42426;46.104;19.656;2023-02-15T13:04:50;40.50;;;22.48;;
56122;SDS011;42426;46.104;19.656;2023-02-15T13:07:17;43.38;;;23.35;;
56122;SDS011;42426;46.104;19.656;2023-02-15T13:09:46;35.72;;;20.83;;
56122;SDS011;42426;46.104;19.656;2023-02-15T13:14:53;32.58;;;18.58;;
56122;SDS011;42426;46.104;19.656;2023-02-15T13:17:53;33.20;;;20.20;;
56122;SDS011;42426;46.104;19.656;2023-02-15T13:20:17;34.42;;;19.30;;
56122;SDS011;42426;46.104;19.656;2023-02-15T13:22:48;37.53;;;20.65;;
56122;SDS011;42426;46.104;19.656;2023-02-15T13:25:28;37.08;;;21.98;;
56122;SDS011;42426;46.104;19.656;2023-02-15T13:28:02;45.88;;;26.85;;
56122;SDS011;42426;46.104;19.656;2023-02-15T13:30:32;45.30;;;24.73;;
56122;SDS011;42426;46.104;19.656;2023-02-15T13:35:44;36.95;;;23.13;;
56122;SDS011;42426;46.104;19.656;2023-02-15T13:41:19;34.70;;;22.23;;
56122;SDS011;42426;46.104;19.656;2023-02-15T13:47:01;40.00;;;23.58;;
56122;SDS011;42426;46.104;19.656;2023-02-15T13:52:40;65.68;;;40.83;;
56122;SDS011;42426;46.104;19.656;2023-02-15T13:58:02;32.63;;;20.35;;
56122;SDS011;42426;46.104;19.656;2023-02-15T14:26:18;61.65;;;34.08;;
56122;SDS011;42426;46.104;19.656;2023-02-15T14:31:28;74.38;;;37.47;;
56122;SDS011;42426;46.104;19.656;2023-02-15T14:33:59;37.33;;;22.67;;
56122;SDS011;42426;46.104;19.656;2023-02-15T14:36:25;33.97;;;20.33;;
56122;SDS011;42426;46.104;19.656;2023-02-15T14:41:47;33.75;;;20.25;;
56122;SDS011;42426;46.104;19.656;2023-02-15T14:44:21;39.42;;;23.50;;
56122;SDS011;42426;46.104;19.656;2023-02-15T14:49:27;39.45;;;23.20;;
56122;SDS011;42426;46.104;19.656;2023-02-15T14:52:03;46.20;;;27.65;;
56122;SDS011;42426;46.104;19.656;2023-02-15T15:02:07;36.13;;;23.65;;
56122;SDS011;42426;46.104;19.656;2023-02-15T15:07:28;42.67;;;24.50;;
56122;SDS011;42426;46.104;19.656;2023-02-15T15:12:40;44.63;;;24.92;;
56122;SDS011;42426;46.104;19.656;2023-02-15T15:15:32;43.90;;;26.38;;
56122;SDS011;42426;46.104;19.656;2023-02-15T15:18:08;51.88;;;28.05;;
56122;SDS011;42426;46.104;19.656;2023-02-15T15:25:45;48.28;;;29.98;;
56122;SDS011;42426;46.104;19.656;2023-02-15T15:34:28;51.38;;;32.05;;
56122;SDS011;42426;46.104;19.656;2023-02-15T15:37:13;56.05;;;32.47;;
56122;SDS011;42426;46.104;19.656;2023-02-15T15:50:41;71.47;;;39.70;;
56122;SDS011;42426;46.104;19.656;2023-02-15T15:53:15;69.60;;;41.78;;
56122;SDS011;42426;46.104;19.656;2023-02-15T15:55:46;57.75;;;36.72;;
56122;SDS011;42426;46.104;19.656;2023-02-15T15:58:14;65.28;;;39.70;;
56122;SDS011;42426;46.104;19.656;2023-02-15T16:00:49;78.85;;;45.83;;
56122;SDS011;42426;46.104;19.656;2023-02-15T16:03:24;72.68;;;42.78;;
56122;SDS011;42426;46.104;19.656;2023-02-15T16:05:52;75.78;;;44.60;;
56122;SDS011;42426;46.104;19.656;2023-02-15T16:08:36;79.55;;;43.78;;
56122;SDS011;42426;46.104;19.656;2023-02-15T16:11:16;82.07;;;50.17;;
56122;SDS011;42426;46.104;19.656;2023-02-15T16:13:47;87.47;;;50.33;;
56122;SDS011;42426;46.104;19.656;2023-02-15T16:16:13;80.38;;;47.42;;
56122;SDS011;42426;46.104;19.656;2023-02-15T16:18:49;98.35;;;55.78;;
56122;SDS011;42426;46.104;19.656;2023-02-15T16:21:20;94.45;;;53.80;;
56122;SDS011;42426;46.104;19.656;2023-02-15T16:29:18;107.90;;;65.70;;
56122;SDS011;42426;46.104;19.656;2023-02-15T16:34:55;121.28;;;71.45;;
56122;SDS011;42426;46.104;19.656;2023-02-15T16:37:27;131.05;;;78.15;;
56122;SDS011;42426;46.104;19.656;2023-02-15T16:39:58;131.05;;;79.28;;
56122;SDS011;42426;46.104;19.656;2023-02-15T16:42:24;137.07;;;81.65;;
56122;SDS011;42426;46.104;19.656;2023-02-15T16:45:35;142.70;;;89.38;;
56122;SDS011;42426;46.104;19.656;2023-02-15T16:47:42;168.27;;;98.60;;
56122;SDS011;42426;46.104;19.656;2023-02-15T16:50:24;175.98;;;103.95;;
56122;SDS011;42426;46.104;19.656;2023-02-15T16:52:54;173.70;;;98.68;;
56122;SDS011;42426;46.104;19.656;2023-02-15T16:55:23;189.32;;;109.55;;
56122;SDS011;42426;46.104;19.656;2023-02-15T16:57:57;185.52;;;109.30;;
56122;SDS011;42426;46.104;19.656;2023-02-15T17:00:28;209.88;;;120.68;;
56122;SDS011;42426;46.104;19.656;2023-02-15T17:05:30;211.32;;;120.60;;
56122;SDS011;42426;46.104;19.656;2023-02-15T17:13:37;224.98;;;128.32;;
56122;SDS011;42426;46.104;19.656;2023-02-15T17:18:32;210.13;;;124.05;;
56122;SDS011;42426;46.104;19.656;2023-02-15T17:21:00;215.23;;;125.40;;
56122;SDS011;42426;46.104;19.656;2023-02-15T17:23:38;210.18;;;126.35;;
56122;SDS011;42426;46.104;19.656;2023-02-15T17:26:14;225.50;;;129.60;;
56122;SDS011;42426;46.104;19.656;2023-02-15T17:28:55;216.45;;;128.55;;
56122;SDS011;42426;46.104;19.656;2023-02-15T17:31:24;229.68;;;131.27;;
56122;SDS011;42426;46.104;19.656;2023-02-15T17:33:54;222.25;;;127.70;;
56122;SDS011;42426;46.104;19.656;2023-02-15T17:36:22;217.15;;;133.25;;
56122;SDS011;42426;46.104;19.656;2023-02-15T17:41:44;214.35;;;130.75;;
56122;SDS011;42426;46.104;19.656;2023-02-15T17:44:12;234.57;;;134.13;;
56122;SDS011;42426;46.104;19.656;2023-02-15T17:46:40;218.15;;;131.57;;
56122;SDS011;42426;46.104;19.656;2023-02-15T17:49:10;226.30;;;135.00;;
56122;SDS011;42426;46.104;19.656;2023-02-15T17:51:43;218.45;;;134.50;;
56122;SDS011;42426;46.104;19.656;2023-02-15T17:54:09;216.70;;;129.77;;
56122;SDS011;42426;46.104;19.656;2023-02-15T17:56:53;222.52;;;129.82;;
56122;SDS011;42426;46.104;19.656;2023-02-15T17:59:19;221.98;;;133.40;;